createdAt,value
2023-01-11T00:01:25.671Z,8.80
2023-01-11T00:04:12.661Z,8.55
2023-01-11T00:07:03.896Z,8.88
2023-01-11T00:09:50.791Z,9.23
2023-01-11T00:12:37.805Z,6.90
2023-01-11T00:15:27.001Z,9.75
2023-01-11T00:18:16.167Z,9.00
2023-01-11T00:21:05.656Z,8.10
2023-01-11T00:23:54.862Z,8.65
2023-01-11T00:26:41.644Z,7.78
2023-01-11T00:29:28.459Z,6.88
2023-01-11T00:32:17.808Z,7.53
2023-01-11T00:35:05.111Z,7.25
2023-01-11T00:37:55.229Z,8.63
2023-01-11T00:40:42.044Z,6.70
2023-01-11T00:43:47.557Z,7.68
2023-01-11T00:46:52.820Z,9.07
2023-01-11T00:49:40.045Z,6.75
2023-01-11T00:52:29.701Z,7.00
2023-01-11T00:55:16.548Z,10.15
2023-01-11T00:58:06.413Z,7.38
2023-01-11T01:00:56.938Z,7.25
2023-01-11T01:03:43.866Z,9.55
2023-01-11T01:06:30.910Z,8.38
2023-01-11T01:09:17.791Z,8.05
2023-01-11T01:12:07.050Z,7.03
2023-01-11T01:17:43.118Z,7.68
2023-01-11T01:23:16.941Z,7.43
2023-01-11T01:26:05.164Z,6.90
2023-01-11T01:28:52.087Z,8.48
2023-01-11T01:31:39.352Z,7.38
2023-01-11T01:34:26.493Z,7.05
2023-01-11T01:37:15.947Z,5.78
2023-01-11T01:40:03.186Z,6.57
2023-01-11T01:42:54.383Z,7.45
2023-01-11T01:45:48.759Z,6.88
2023-01-11T01:48:36.217Z,6.75
2023-01-11T01:51:27.482Z,6.90
2023-01-11T01:54:18.631Z,7.22
2023-01-11T01:57:08.984Z,7.57
2023-01-11T01:59:57.425Z,7.60
2023-01-11T02:02:47.753Z,7.30
2023-01-11T02:05:42.010Z,8.82
2023-01-11T02:08:37.128Z,7.60
2023-01-11T02:11:31.622Z,6.70
2023-01-11T02:14:20.106Z,8.35
2023-01-11T02:17:09.374Z,8.85
2023-01-11T02:23:10.535Z,6.68
2023-01-11T02:26:28.119Z,9.10
2023-01-11T02:29:44.673Z,7.32
2023-01-11T02:32:31.459Z,7.55
2023-01-11T02:35:35.848Z,6.50
2023-01-11T02:38:29.525Z,6.93
2023-01-11T02:41:54.627Z,6.13
2023-01-11T02:45:04.638Z,5.20
2023-01-11T02:48:01.277Z,6.68
2023-01-11T02:51:02.788Z,6.10
2023-01-11T02:54:04.542Z,6.35
2023-01-11T02:56:55.175Z,7.28
2023-01-11T02:59:42.268Z,7.30
2023-01-11T03:02:29.292Z,7.78
2023-01-11T03:05:16.165Z,7.30
2023-01-11T03:08:15.618Z,5.88
2023-01-11T03:11:10.045Z,6.38
2023-01-11T03:14:06.394Z,6.30
2023-01-11T03:17:19.276Z,6.90
2023-01-11T03:20:29.071Z,7.47
2023-01-11T03:23:21.532Z,6.65
2023-01-11T03:26:16.016Z,6.10
2023-01-11T03:29:26.869Z,7.35
2023-01-11T03:32:22.291Z,6.82
2023-01-11T03:35:20.287Z,6.30
2023-01-11T03:38:39.280Z,7.47
2023-01-11T03:41:28.875Z,5.88
2023-01-11T03:44:19.040Z,6.80
2023-01-11T03:47:08.244Z,7.05
2023-01-11T03:49:59.809Z,5.45
2023-01-11T03:52:47.051Z,5.60
2023-01-11T03:55:40.474Z,6.57
2023-01-11T03:58:27.861Z,5.43
2023-01-11T04:01:14.996Z,6.72
2023-01-11T04:04:01.894Z,5.93
2023-01-11T04:06:51.559Z,6.50
2023-01-11T04:09:38.525Z,6.45
2023-01-11T04:12:27.286Z,5.80
2023-01-11T04:15:15.211Z,7.88
2023-01-11T04:18:05.384Z,6.40
2023-01-11T04:20:52.185Z,5.55
2023-01-11T04:23:38.947Z,6.35
2023-01-11T04:26:25.740Z,6.70
2023-01-11T04:29:12.691Z,5.50
2023-01-11T04:31:59.471Z,6.55
2023-01-11T04:34:46.382Z,5.35
2023-01-11T04:37:33.144Z,6.03
2023-01-11T04:40:20.355Z,6.07
2023-01-11T04:43:07.145Z,5.95
2023-01-11T04:45:58.778Z,6.50
2023-01-11T04:48:45.571Z,7.03
2023-01-11T04:51:32.379Z,7.53
2023-01-11T04:54:19.159Z,7.18
2023-01-11T04:57:06.280Z,6.60
2023-01-11T04:59:53.071Z,5.72
2023-01-11T05:02:40.488Z,6.50
2023-01-11T05:05:27.240Z,4.80
2023-01-11T05:08:14.260Z,6.03
2023-01-11T05:11:03.591Z,6.25
2023-01-11T05:13:53.387Z,6.00
2023-01-11T05:16:40.307Z,6.95
2023-01-11T05:19:27.098Z,7.45
2023-01-11T05:22:13.911Z,6.28
2023-01-11T05:25:00.773Z,6.75
2023-01-11T05:27:47.543Z,6.20
2023-01-11T05:30:34.359Z,6.10
2023-01-11T05:33:21.177Z,6.68
2023-01-11T05:36:12.632Z,6.15
2023-01-11T05:39:02.358Z,6.55
2023-01-11T05:41:49.235Z,7.30
2023-01-11T05:44:58.228Z,7.15
2023-01-11T05:47:45.132Z,6.90
2023-01-11T05:50:31.998Z,7.95
2023-01-11T05:53:18.959Z,9.02
2023-01-11T05:56:05.933Z,6.00
2023-01-11T05:58:55.485Z,7.20
2023-01-11T06:01:42.286Z,7.10
2023-01-11T06:04:29.173Z,7.13
2023-01-11T06:07:15.983Z,7.90
2023-01-11T06:10:02.844Z,7.78
2023-01-11T06:13:26.702Z,7.75
2023-01-11T06:16:20.482Z,6.85
2023-01-11T06:23:05.933Z,8.38
2023-01-11T06:25:52.755Z,8.65
2023-01-11T06:28:39.879Z,7.72
2023-01-11T06:31:26.645Z,8.02
2023-01-11T06:34:13.417Z,8.13
2023-01-11T06:37:00.199Z,7.88
2023-01-11T06:39:46.990Z,8.57
2023-01-11T06:42:33.742Z,9.10
2023-01-11T06:45:20.789Z,9.32
2023-01-11T06:48:09.417Z,8.20
2023-01-11T06:50:59.472Z,7.70
2023-01-11T06:53:52.961Z,8.85
2023-01-11T06:56:42.349Z,7.10
2023-01-11T06:59:32.266Z,8.45
2023-01-11T07:02:19.101Z,8.13
2023-01-11T07:05:05.957Z,8.32
2023-01-11T07:07:52.808Z,9.07
2023-01-11T07:10:39.578Z,9.65
2023-01-11T07:13:26.363Z,9.63
2023-01-11T07:16:13.161Z,8.45
2023-01-11T07:19:00.003Z,8.23
2023-01-11T07:21:46.863Z,8.68
2023-01-11T07:24:33.804Z,8.23
2023-01-11T07:27:20.774Z,7.95
2023-01-11T07:30:09.872Z,8.40
2023-01-11T07:35:48.969Z,7.90
2023-01-11T07:38:35.849Z,11.02
2023-01-11T07:41:41.454Z,8.10
2023-01-11T07:44:28.212Z,8.57
2023-01-11T07:47:14.972Z,8.70
2023-01-11T07:50:01.792Z,8.57
2023-01-11T07:52:49.189Z,8.35
2023-01-11T07:55:36.142Z,8.70
2023-01-11T07:58:23.162Z,8.88
2023-01-11T08:01:09.955Z,8.35
2023-01-11T08:03:56.928Z,7.88
2023-01-11T08:06:43.664Z,9.75
2023-01-11T08:09:30.437Z,9.75
2023-01-11T08:12:35.840Z,7.68
2023-01-11T08:15:23.687Z,8.85
2023-01-11T08:18:11.790Z,8.65
2023-01-11T08:20:58.639Z,9.30
2023-01-11T08:23:45.397Z,8.45
2023-01-11T08:26:32.156Z,9.50
2023-01-11T08:29:19.026Z,8.32
2023-01-11T08:32:06.052Z,8.77
2023-01-11T08:34:52.785Z,8.13
2023-01-11T08:37:39.525Z,8.70
2023-01-11T08:40:26.347Z,9.88
2023-01-11T08:43:13.095Z,8.43
2023-01-11T08:45:59.952Z,9.82
2023-01-11T08:48:46.939Z,9.23
2023-01-11T08:51:33.805Z,8.65
2023-01-11T08:54:20.665Z,9.13
2023-01-11T08:57:07.710Z,8.60
2023-01-11T08:59:54.555Z,8.48
2023-01-11T09:02:41.488Z,8.60
2023-01-11T09:05:28.276Z,7.78
2023-01-11T09:08:15.032Z,7.65
2023-01-11T09:11:01.872Z,8.18
2023-01-11T09:13:48.786Z,8.40
2023-01-11T09:16:35.612Z,8.30
2023-01-11T09:19:22.430Z,7.97
2023-01-11T09:22:09.232Z,8.05
2023-01-11T09:24:58.884Z,7.85
2023-01-11T09:27:46.282Z,8.13
2023-01-11T09:30:33.086Z,8.30
2023-01-11T09:33:22.201Z,10.27
2023-01-11T09:36:09.015Z,8.10
2023-01-11T09:38:57.834Z,8.00
2023-01-11T09:42:11.269Z,8.90
2023-01-11T09:45:14.237Z,9.15
2023-01-11T09:48:11.706Z,8.60
2023-01-11T09:50:59.932Z,8.52
2023-01-11T09:53:50.234Z,8.52
2023-01-11T09:56:45.735Z,8.98
2023-01-11T09:59:42.482Z,9.10
2023-01-11T10:02:41.012Z,9.40
2023-01-11T10:05:45.394Z,8.55
2023-01-11T10:18:27.727Z,8.63
2023-01-11T10:22:32.358Z,8.10
2023-01-11T10:25:40.366Z,8.57
2023-01-11T10:28:43.050Z,8.43
2023-01-11T10:31:44.838Z,8.88
2023-01-11T10:34:58.028Z,8.95
2023-01-11T10:38:04.958Z,8.68
2023-01-11T10:41:12.288Z,9.05
2023-01-11T10:44:10.469Z,8.52
2023-01-11T10:46:57.848Z,9.80
2023-01-11T10:50:06.229Z,8.70
2023-01-11T10:53:15.037Z,8.43
2023-01-11T10:56:24.540Z,9.20
2023-01-11T10:59:34.848Z,10.70
2023-01-11T11:02:43.045Z,10.75
2023-01-11T11:05:51.954Z,8.38
2023-01-11T11:08:48.400Z,8.95
2023-01-11T11:11:41.640Z,8.77
2023-01-11T11:14:39.821Z,9.52
2023-01-11T11:17:35.320Z,9.10
2023-01-11T11:20:29.380Z,9.23
2023-01-11T11:23:25.076Z,8.38
2023-01-11T11:26:15.056Z,8.70
2023-01-11T11:29:33.599Z,8.65
2023-01-11T11:33:00.260Z,8.30
2023-01-11T11:35:56.717Z,8.40
2023-01-11T11:39:11.098Z,8.70
2023-01-11T11:42:10.534Z,8.88
2023-01-11T11:45:09.572Z,8.48
2023-01-11T11:48:05.786Z,9.13
2023-01-11T11:50:54.473Z,7.97
2023-01-11T11:53:45.996Z,8.35
2023-01-11T11:56:34.344Z,9.02
2023-01-11T12:02:52.704Z,8.70
2023-01-11T12:05:51.835Z,7.78
2023-01-11T12:08:42.385Z,8.57
2023-01-11T12:11:32.789Z,8.52
2023-01-11T12:15:24.309Z,8.10
2023-01-11T12:18:25.202Z,9.00
2023-01-11T12:21:23.892Z,8.52
2023-01-11T12:24:19.306Z,7.85
2023-01-11T12:27:12.487Z,8.05
2023-01-11T12:30:08.558Z,8.73
2023-01-11T12:33:14.009Z,8.02
2023-01-11T12:36:05.980Z,7.72
2023-01-11T12:39:24.968Z,8.40
2023-01-11T12:42:45.887Z,8.02
2023-01-11T12:46:00.707Z,8.65
2023-01-11T12:49:46.551Z,8.57
2023-01-11T12:53:07.594Z,8.55
2023-01-11T12:56:12.775Z,7.93
2023-01-11T12:59:16.059Z,8.30
2023-01-11T13:02:21.628Z,8.02
2023-01-11T13:05:49.889Z,7.78
2023-01-11T13:09:04.683Z,8.00
2023-01-11T13:12:16.195Z,9.30
2023-01-11T13:15:05.884Z,9.88
2023-01-11T13:18:00.842Z,8.40
2023-01-11T13:21:01.227Z,8.18
2023-01-11T13:23:57.910Z,8.63
2023-01-11T13:26:47.668Z,8.02
2023-01-11T13:29:44.621Z,8.60
2023-01-11T13:32:34.086Z,8.10
2023-01-11T13:35:35.839Z,8.52
2023-01-11T13:38:34.894Z,8.40
2023-01-11T13:41:25.029Z,7.75
2023-01-11T13:44:25.805Z,8.13
2023-01-11T13:47:36.013Z,7.40
2023-01-11T13:50:37.639Z,8.32
2023-01-11T13:53:48.913Z,8.20
2023-01-11T13:56:44.053Z,8.68
2023-01-11T13:59:42.821Z,7.97
2023-01-11T14:02:42.362Z,8.20
2023-01-11T14:05:35.495Z,8.43
2023-01-11T14:08:47.885Z,8.30
2023-01-11T14:12:19.353Z,11.55
2023-01-11T14:15:18.425Z,8.85
2023-01-11T14:18:11.207Z,8.82
2023-01-11T14:21:17.043Z,7.60
2023-01-11T14:24:07.969Z,7.90
2023-01-11T14:27:28.265Z,8.63
2023-01-11T14:31:19.143Z,7.90
2023-01-11T14:35:01.026Z,8.85
2023-01-11T14:38:08.977Z,8.32
2023-01-11T14:41:26.914Z,9.68
2023-01-11T14:44:28.057Z,8.38
2023-01-11T14:47:35.758Z,7.85
2023-01-11T14:50:44.946Z,8.23
2023-01-11T14:57:14.622Z,8.20
2023-01-11T15:00:27.868Z,8.98
2023-01-11T15:10:24.799Z,8.80
2023-01-11T15:13:24.075Z,9.82
2023-01-11T15:19:29.836Z,9.38
2023-01-11T15:22:46.297Z,8.40
2023-01-11T15:25:45.501Z,8.65
2023-01-11T15:31:47.824Z,9.60
2023-01-11T15:34:54.072Z,8.90
2023-01-11T15:37:48.752Z,8.80
2023-01-11T15:40:41.388Z,8.85
2023-01-11T15:43:40.065Z,9.20
2023-01-11T15:46:55.738Z,10.07
2023-01-11T15:50:20.311Z,9.25
2023-01-11T15:53:25.315Z,8.70
2023-01-11T15:56:43.551Z,9.02
2023-01-11T15:59:46.769Z,9.50
2023-01-11T16:02:49.944Z,10.23
2023-01-11T16:05:44.144Z,8.65
2023-01-11T16:08:44.556Z,9.85
2023-01-11T16:11:44.562Z,9.45
2023-01-11T16:15:11.699Z,9.23
2023-01-11T16:18:12.268Z,10.55
2023-01-11T16:21:09.535Z,9.93
2023-01-11T16:23:56.683Z,9.68
2023-01-11T16:26:43.838Z,9.25
2023-01-11T16:29:35.356Z,9.40
2023-01-11T16:32:37.616Z,9.52
2023-01-11T16:35:25.286Z,10.23
2023-01-11T16:38:21.397Z,9.77
2023-01-11T16:41:13.035Z,8.90
2023-01-11T16:44:03.148Z,10.55
2023-01-11T16:47:11.280Z,9.82
2023-01-11T16:50:10.554Z,9.73
2023-01-11T16:55:56.242Z,9.90
2023-01-11T16:58:43.428Z,10.00
2023-01-11T17:01:54.426Z,9.30
2023-01-11T17:04:50.973Z,9.10
2023-01-11T17:07:37.793Z,9.15
2023-01-11T17:10:35.104Z,10.50
2023-01-11T17:13:47.248Z,9.35
2023-01-11T17:16:41.752Z,9.10
2023-01-11T17:19:30.910Z,9.73
2023-01-11T17:22:23.675Z,9.82
2023-01-11T17:25:23.503Z,9.15
2023-01-11T17:28:16.539Z,9.20
2023-01-11T17:31:05.708Z,9.23
2023-01-11T17:36:53.625Z,9.85
2023-01-11T17:39:50.071Z,9.82
2023-01-11T17:42:55.615Z,10.27
2023-01-11T17:45:42.773Z,9.43
2023-01-11T17:48:40.055Z,10.00
2023-01-11T17:51:33.984Z,9.73
2023-01-11T17:54:25.255Z,10.38
2023-01-11T17:57:15.198Z,8.70
2023-01-11T18:00:18.676Z,9.13
2023-01-11T18:03:15.682Z,9.50
2023-01-11T18:06:23.947Z,9.88
2023-01-11T18:10:03.997Z,8.67
2023-01-11T18:12:56.086Z,9.38
2023-01-11T18:15:46.882Z,9.82
2023-01-11T18:18:53.010Z,9.10
2023-01-11T18:21:52.346Z,9.02
2023-01-11T18:24:43.360Z,9.63
2023-01-11T18:27:35.746Z,9.15
2023-01-11T18:30:31.779Z,9.43
2023-01-11T18:33:24.333Z,8.77
2023-01-11T18:36:21.581Z,10.10
2023-01-11T18:39:30.310Z,10.40
2023-01-11T18:42:36.709Z,9.23
2023-01-11T18:46:19.115Z,9.35
2023-01-11T18:49:40.933Z,9.43
2023-01-11T18:52:49.431Z,9.27
2023-01-11T18:55:42.296Z,8.45
2023-01-11T19:08:45.804Z,8.90
2023-01-11T19:26:17.090Z,8.60
2023-01-11T19:37:26.153Z,8.63
2023-01-11T19:45:14.276Z,8.02
2023-01-11T19:52:28.982Z,8.52
2023-01-11T19:59:10.340Z,7.57
2023-01-11T20:02:02.768Z,7.80
2023-01-11T20:05:23.335Z,8.30
2023-01-11T20:08:17.871Z,7.95
2023-01-11T20:12:12.025Z,8.73
2023-01-11T20:15:46.623Z,8.60
2023-01-11T20:19:48.624Z,8.48
2023-01-11T20:23:08.909Z,7.72
2023-01-11T20:30:00.497Z,8.60
2023-01-11T20:37:24.458Z,8.20
2023-01-11T20:48:04.953Z,8.23
2023-01-11T20:58:16.468Z,7.57
2023-01-11T21:05:44.418Z,7.75
2023-01-11T21:20:13.468Z,6.97
2023-01-11T21:23:00.238Z,7.93
2023-01-11T21:25:47.167Z,7.97
2023-01-11T21:28:37.663Z,7.53
2023-01-11T21:31:39.043Z,7.57
2023-01-11T21:34:34.560Z,8.13
2023-01-11T21:37:25.945Z,6.25
2023-01-11T21:43:33.620Z,6.80
2023-01-11T21:46:23.576Z,6.72
2023-01-11T21:49:31.508Z,6.75
2023-01-11T21:52:31.716Z,6.40
2023-01-11T21:55:25.665Z,7.45
2023-01-11T21:58:22.816Z,6.85
2023-01-11T22:01:13.013Z,6.30
2023-01-11T22:04:08.786Z,6.32
2023-01-11T22:06:56.310Z,8.27
2023-01-11T22:10:03.481Z,7.50
2023-01-11T22:12:51.621Z,7.35
2023-01-11T22:15:39.274Z,6.85
2023-01-11T22:18:54.584Z,7.15
2023-01-11T22:21:44.681Z,6.50
2023-01-11T22:24:31.535Z,6.40
2023-01-11T22:27:21.284Z,6.00
2023-01-11T22:30:21.536Z,6.50
2023-01-11T22:34:06.992Z,7.63
2023-01-11T22:36:57.057Z,6.72
2023-01-11T22:39:43.871Z,6.25
2023-01-11T22:42:30.804Z,6.25
2023-01-11T22:45:18.797Z,6.05
2023-01-11T22:48:10.941Z,6.25
2023-01-11T22:50:58.660Z,6.88
2023-01-11T22:53:48.092Z,6.63
2023-01-11T22:56:34.981Z,7.30
2023-01-11T22:59:21.851Z,5.95
2023-01-11T23:02:16.007Z,6.55
2023-01-11T23:05:02.797Z,5.07
2023-01-11T23:07:49.616Z,5.80
2023-01-11T23:10:36.379Z,7.05
2023-01-11T23:13:41.860Z,6.35
2023-01-11T23:16:28.736Z,5.47
2023-01-11T23:19:23.566Z,4.85
2023-01-11T23:22:12.677Z,6.75
2023-01-11T23:25:03.588Z,6.30
2023-01-11T23:27:50.388Z,6.75
2023-01-11T23:30:38.731Z,6.47
2023-01-11T23:33:26.332Z,6.27
2023-01-11T23:36:13.773Z,5.75
2023-01-11T23:39:00.904Z,5.30
2023-01-11T23:42:09.511Z,4.85
2023-01-11T23:44:57.531Z,6.95
2023-01-11T23:47:44.321Z,5.45
2023-01-11T23:50:31.881Z,6.25
2023-01-11T23:53:13.886Z,5.65
2023-01-11T23:58:47.605Z,5.65
